createdAt,value
2023-04-04T00:00:37.005Z,8.68
2023-04-04T00:03:03.997Z,8.77
2023-04-04T00:05:35.475Z,8.70
2023-04-04T00:08:02.994Z,8.71
2023-04-04T00:10:29.799Z,8.70
2023-04-04T00:12:56.849Z,8.73
2023-04-04T00:15:23.737Z,8.75
2023-04-04T00:17:50.740Z,8.75
2023-04-04T00:20:17.650Z,8.78
2023-04-04T00:22:45.094Z,8.79
2023-04-04T00:25:12.229Z,8.78
2023-04-04T00:27:39.356Z,8.92
2023-04-04T00:30:07.002Z,8.95
2023-04-04T00:32:33.980Z,8.86
2023-04-04T00:35:01.192Z,8.97
2023-04-04T00:37:28.439Z,8.92
2023-04-04T00:39:55.766Z,8.94
2023-04-04T00:42:23.074Z,8.97
2023-04-04T00:44:52.009Z,8.92
2023-04-04T00:47:27.868Z,8.97
2023-04-04T00:49:55.074Z,9.00
2023-04-04T00:52:22.685Z,9.02
2023-04-04T00:54:51.416Z,9.06
2023-04-04T00:57:19.368Z,9.10
2023-04-04T00:59:46.677Z,8.86
2023-04-04T01:02:13.617Z,9.13
2023-04-04T01:04:40.985Z,9.18
2023-04-04T01:07:07.942Z,9.17
2023-04-04T01:09:35.967Z,9.24
2023-04-04T01:12:03.053Z,9.14
2023-04-04T01:14:32.028Z,9.25
2023-04-04T01:17:00.257Z,9.22
2023-04-04T01:19:36.980Z,9.32
2023-04-04T01:22:10.014Z,9.33
2023-04-04T01:24:42.179Z,9.36
2023-04-04T01:27:09.741Z,9.33
2023-04-04T01:29:42.646Z,9.43
2023-04-04T01:32:27.785Z,9.29
2023-04-04T01:35:21.534Z,9.37
2023-04-04T01:37:48.794Z,9.38
2023-04-04T01:40:21.923Z,9.35
2023-04-04T01:42:52.815Z,9.32
2023-04-04T01:45:24.413Z,9.32
2023-04-04T01:47:52.238Z,9.27
2023-04-04T01:50:22.798Z,9.23
2023-04-04T01:52:50.082Z,9.20
2023-04-04T01:55:17.296Z,9.07
2023-04-04T01:57:44.344Z,9.05
2023-04-04T02:00:11.954Z,8.99
2023-04-04T02:02:44.490Z,9.04
2023-04-04T02:05:12.086Z,8.90
2023-04-04T02:07:39.036Z,8.93
2023-04-04T02:10:14.410Z,8.92
2023-04-04T02:12:41.454Z,8.79
2023-04-04T02:15:08.866Z,8.82
2023-04-04T02:17:35.955Z,8.75
2023-04-04T02:20:04.043Z,8.86
2023-04-04T02:22:31.279Z,8.86
2023-04-04T02:24:58.201Z,8.86
2023-04-04T02:27:25.058Z,8.81
2023-04-04T02:29:52.683Z,8.72
2023-04-04T02:32:19.573Z,8.74
2023-04-04T02:34:47.684Z,8.72
2023-04-04T02:37:14.626Z,8.68
2023-04-04T02:39:42.808Z,8.69
2023-04-04T02:42:09.621Z,8.70
2023-04-04T02:44:37.151Z,8.70
2023-04-04T02:47:06.436Z,8.72
2023-04-04T02:49:33.509Z,8.69
2023-04-04T02:52:01.217Z,8.73
2023-04-04T02:54:33.654Z,8.71
2023-04-04T02:57:02.036Z,8.74
2023-04-04T02:59:28.967Z,8.74
2023-04-04T03:01:56.189Z,8.72
2023-04-04T03:04:23.390Z,8.70
2023-04-04T03:06:50.866Z,8.72
2023-04-04T03:09:17.716Z,8.75
2023-04-04T03:11:44.777Z,8.77
2023-04-04T03:14:12.172Z,8.76
2023-04-04T03:16:40.190Z,8.82
2023-04-04T03:19:07.612Z,8.83
2023-04-04T03:21:34.702Z,8.85
2023-04-04T03:24:01.642Z,8.88
2023-04-04T03:26:29.382Z,8.87
2023-04-04T03:28:56.902Z,8.94
2023-04-04T03:31:25.453Z,8.92
2023-04-04T03:33:52.889Z,8.95
2023-04-04T03:36:22.784Z,8.81
2023-04-04T03:38:50.797Z,8.95
2023-04-04T03:41:17.855Z,8.46
2023-04-04T03:43:45.508Z,8.93
2023-04-04T03:46:12.455Z,8.96
2023-04-04T03:48:39.284Z,8.91
2023-04-04T03:51:09.626Z,8.90
2023-04-04T03:53:37.550Z,8.89
2023-04-04T03:56:05.105Z,8.90
2023-04-04T03:58:32.190Z,8.90
2023-04-04T04:00:59.217Z,8.90
2023-04-04T04:03:29.881Z,8.94
2023-04-04T04:05:57.317Z,8.97
2023-04-04T04:08:25.266Z,8.99
2023-04-04T04:10:52.266Z,9.02
2023-04-04T04:13:19.282Z,9.05
2023-04-04T04:15:46.797Z,9.07
2023-04-04T04:18:19.199Z,9.02
2023-04-04T04:20:46.366Z,9.09
2023-04-04T04:23:13.336Z,9.02
2023-04-04T04:25:40.944Z,9.00
2023-04-04T04:28:19.999Z,8.97
2023-04-04T04:30:48.705Z,9.04
2023-04-04T04:33:19.827Z,9.07
2023-04-04T04:36:01.534Z,9.08
2023-04-04T04:38:33.319Z,9.19
2023-04-04T04:41:01.536Z,9.23
2023-04-04T04:43:37.393Z,9.24
2023-04-04T04:46:04.663Z,9.29
2023-04-04T04:48:31.952Z,9.30
2023-04-04T04:51:00.386Z,9.22
2023-04-04T04:53:37.166Z,9.26
2023-04-04T04:56:05.420Z,9.00
2023-04-04T04:58:33.931Z,9.12
2023-04-04T05:01:03.055Z,9.14
2023-04-04T05:03:37.453Z,9.18
2023-04-04T05:06:07.544Z,9.20
2023-04-04T05:08:36.091Z,9.21
2023-04-04T05:11:10.979Z,8.65
2023-04-04T05:13:38.037Z,9.43
2023-04-04T05:16:05.759Z,9.52
2023-04-04T05:18:34.772Z,9.62
2023-04-04T05:21:02.962Z,9.75
2023-04-04T05:23:30.548Z,9.87
2023-04-04T05:25:57.573Z,10.01
2023-04-04T05:28:28.369Z,10.16
2023-04-04T05:30:58.956Z,10.28
2023-04-04T05:33:28.772Z,10.22
2023-04-04T05:36:03.629Z,10.20
2023-04-04T05:38:33.525Z,10.14
2023-04-04T05:41:00.533Z,10.21
2023-04-04T05:43:27.804Z,10.50
2023-04-04T05:46:06.689Z,10.60
2023-04-04T05:48:40.399Z,10.31
2023-04-04T05:51:07.472Z,10.31
2023-04-04T05:53:42.697Z,10.40
2023-04-04T05:56:10.533Z,10.42
2023-04-04T05:58:37.761Z,10.22
2023-04-04T06:01:08.969Z,10.43
2023-04-04T06:03:36.862Z,10.68
2023-04-04T06:06:09.084Z,10.59
2023-04-04T06:08:46.622Z,10.81
2023-04-04T06:11:22.758Z,10.75
2023-04-04T06:13:51.310Z,10.68
2023-04-04T06:16:20.207Z,10.84
2023-04-04T06:18:48.569Z,11.02
2023-04-04T06:21:15.506Z,11.08
2023-04-04T06:23:42.444Z,11.41
2023-04-04T06:26:10.529Z,11.55
2023-04-04T06:28:49.872Z,11.62
2023-04-04T06:31:24.686Z,11.68
2023-04-04T06:33:54.372Z,11.69
2023-04-04T06:36:23.654Z,11.65
2023-04-04T06:38:52.765Z,10.58
2023-04-04T06:41:22.049Z,10.00
2023-04-04T06:43:51.249Z,9.78
2023-04-04T06:46:18.565Z,9.29
2023-04-04T06:48:45.736Z,8.85
2023-04-04T06:51:12.939Z,8.64
2023-04-04T06:53:44.444Z,8.66
2023-04-04T06:56:12.134Z,8.52
2023-04-04T06:58:40.235Z,8.06
2023-04-04T07:01:07.725Z,7.88
2023-04-04T07:03:34.953Z,7.63
2023-04-04T07:06:05.501Z,7.32
2023-04-04T07:08:36.086Z,7.44
2023-04-04T07:11:05.102Z,7.45
2023-04-04T07:13:32.018Z,7.34
2023-04-04T07:15:59.206Z,7.28
2023-04-04T07:18:26.233Z,7.23
2023-04-04T07:20:53.152Z,7.10
2023-04-04T07:23:19.997Z,7.01
2023-04-04T07:25:47.749Z,6.70
2023-04-04T07:28:14.651Z,6.57
2023-04-04T07:30:41.801Z,6.39
2023-04-04T07:33:09.099Z,6.25
2023-04-04T07:35:36.599Z,6.31
2023-04-04T07:38:05.051Z,6.21
2023-04-04T07:40:32.026Z,6.24
2023-04-04T07:42:58.912Z,6.32
2023-04-04T07:45:26.186Z,6.24
2023-04-04T07:47:53.150Z,6.12
2023-04-04T07:50:20.421Z,6.00
2023-04-04T07:52:55.919Z,5.94
2023-04-04T07:55:25.472Z,5.94
2023-04-04T07:57:53.532Z,6.00
2023-04-04T08:00:22.663Z,6.15
2023-04-04T08:02:54.414Z,5.88
2023-04-04T08:05:21.969Z,6.01
2023-04-04T08:07:48.944Z,5.90
2023-04-04T08:10:19.271Z,5.74
2023-04-04T08:12:46.690Z,5.71
2023-04-04T08:15:14.089Z,5.65
2023-04-04T08:17:43.232Z,5.65
2023-04-04T08:20:13.344Z,5.84
2023-04-04T08:22:41.099Z,5.85
2023-04-04T08:25:08.868Z,5.81
2023-04-04T08:27:35.910Z,5.70
2023-04-04T08:30:04.186Z,6.07
2023-04-04T08:32:32.312Z,5.96
2023-04-04T08:34:59.593Z,5.84
2023-04-04T08:37:26.840Z,5.70
2023-04-04T08:39:55.427Z,5.59
2023-04-04T08:42:24.848Z,5.68
2023-04-04T08:44:54.275Z,5.61
2023-04-04T08:47:24.418Z,5.39
2023-04-04T08:49:53.421Z,5.40
2023-04-04T08:52:25.550Z,5.32
2023-04-04T08:54:53.970Z,5.42
2023-04-04T08:57:21.278Z,5.38
2023-04-04T08:59:48.728Z,5.33
2023-04-04T09:02:16.542Z,5.11
2023-04-04T09:04:51.401Z,5.08
2023-04-04T09:07:28.017Z,5.36
2023-04-04T09:09:56.510Z,5.47
2023-04-04T09:12:26.280Z,5.34
2023-04-04T09:14:55.596Z,5.45
2023-04-04T09:17:22.600Z,5.47
2023-04-04T09:19:49.636Z,5.50
2023-04-04T09:22:17.607Z,5.40
2023-04-04T09:24:44.573Z,5.67
2023-04-04T09:27:12.389Z,5.77
2023-04-04T09:29:40.291Z,5.80
2023-04-04T09:32:14.622Z,5.71
2023-04-04T09:34:43.732Z,5.72
2023-04-04T09:37:14.267Z,5.68
2023-04-04T09:39:42.134Z,5.64
2023-04-04T09:42:09.627Z,5.62
2023-04-04T09:44:37.001Z,5.54
2023-04-04T09:50:01.408Z,5.55
2023-04-04T09:52:37.034Z,5.79
2023-04-04T09:55:05.383Z,6.00
2023-04-04T09:57:34.745Z,5.99
2023-04-04T10:00:09.569Z,5.82
2023-04-04T10:02:39.303Z,6.02
2023-04-04T10:05:08.799Z,6.19
2023-04-04T10:07:38.211Z,6.07
2023-04-04T10:10:12.024Z,6.11
2023-04-04T10:12:40.156Z,6.43
2023-04-04T10:15:08.584Z,6.62
2023-04-04T10:17:40.441Z,6.84
2023-04-04T10:20:09.477Z,6.90
2023-04-04T10:22:38.203Z,6.90
2023-04-04T10:25:06.354Z,6.88
2023-04-04T10:27:34.324Z,6.81
2023-04-04T10:30:02.226Z,6.83
2023-04-04T10:32:48.794Z,6.46
2023-04-04T10:35:17.310Z,6.34
2023-04-04T10:37:51.529Z,6.00
2023-04-04T10:40:24.435Z,6.02
2023-04-04T10:42:53.086Z,6.15
2023-04-04T10:45:21.677Z,6.18
2023-04-04T10:47:49.487Z,6.13
2023-04-04T10:50:16.821Z,6.23
2023-04-04T10:52:45.425Z,6.05
2023-04-04T10:55:14.952Z,5.97
2023-04-04T10:57:52.443Z,5.91
2023-04-04T11:00:23.473Z,5.68
2023-04-04T11:02:55.078Z,5.81
2023-04-04T11:05:34.687Z,5.82
2023-04-04T11:08:09.911Z,6.08
2023-04-04T11:10:39.326Z,6.01
2023-04-04T11:13:13.757Z,6.08
2023-04-04T11:16:03.887Z,6.00
2023-04-04T11:18:42.931Z,6.08
2023-04-04T11:21:14.475Z,6.09
2023-04-04T11:23:47.742Z,6.13
2023-04-04T11:26:41.447Z,6.41
2023-04-04T11:29:09.088Z,6.39
2023-04-04T11:31:43.198Z,6.08
2023-04-04T11:34:12.722Z,5.95
2023-04-04T11:36:40.351Z,6.06
2023-04-04T11:39:14.846Z,5.96
2023-04-04T11:42:10.659Z,5.84
2023-04-04T11:45:02.972Z,5.77
2023-04-04T11:47:31.896Z,5.81
2023-04-04T11:50:01.261Z,5.78
2023-04-04T11:52:35.417Z,5.84
2023-04-04T11:55:02.597Z,5.84
2023-04-04T11:57:34.114Z,5.95
2023-04-04T12:00:05.495Z,5.77
2023-04-04T12:02:37.976Z,5.64
2023-04-04T12:05:08.239Z,5.60
2023-04-04T12:07:37.369Z,5.60
2023-04-04T12:10:06.206Z,5.64
2023-04-04T12:12:37.929Z,5.83
2023-04-04T12:15:16.934Z,5.75
2023-04-04T12:17:45.942Z,5.54
2023-04-04T12:20:16.610Z,5.51
2023-04-04T12:22:44.045Z,5.40
2023-04-04T12:25:11.432Z,5.40
2023-04-04T12:27:38.632Z,5.49
2023-04-04T12:30:10.890Z,5.59
2023-04-04T12:32:38.087Z,5.47
2023-04-04T12:35:06.132Z,5.38
2023-04-04T12:37:33.361Z,5.19
2023-04-04T12:40:02.393Z,5.13
2023-04-04T12:42:32.082Z,5.00
2023-04-04T12:45:02.260Z,5.03
2023-04-04T12:47:31.459Z,5.07
2023-04-04T12:49:58.548Z,5.21
2023-04-04T12:52:32.391Z,5.20
2023-04-04T12:55:08.458Z,5.10
2023-04-04T12:57:38.222Z,5.14
2023-04-04T13:00:07.859Z,5.12
2023-04-04T13:02:36.530Z,4.93
2023-04-04T13:05:04.173Z,4.82
2023-04-04T13:07:39.137Z,4.70
2023-04-04T13:10:06.774Z,4.91
2023-04-04T13:12:59.506Z,4.83
2023-04-04T13:15:52.821Z,4.93
2023-04-04T13:18:22.254Z,4.65
2023-04-04T13:20:50.758Z,4.45
2023-04-04T13:23:18.803Z,4.60
2023-04-04T13:25:46.663Z,4.33
2023-04-04T13:28:14.399Z,4.34
2023-04-04T13:30:49.167Z,4.44
2023-04-04T13:33:18.809Z,4.19
2023-04-04T13:35:46.883Z,4.15
2023-04-04T13:38:14.188Z,4.20
2023-04-04T13:40:41.309Z,4.23
2023-04-04T13:43:12.920Z,3.99
2023-04-04T13:45:39.933Z,3.89
2023-04-04T13:48:07.095Z,3.81
2023-04-04T13:50:36.851Z,3.85
2023-04-04T13:53:03.962Z,3.61
2023-04-04T13:55:31.091Z,3.43
2023-04-04T13:57:58.136Z,3.61
2023-04-04T14:00:25.724Z,3.56
2023-04-04T14:02:55.652Z,3.51
2023-04-04T14:05:23.511Z,3.43
2023-04-04T14:07:50.808Z,3.48
2023-04-04T14:10:18.042Z,3.45
2023-04-04T14:12:44.952Z,3.48
2023-04-04T14:15:12.456Z,3.60
2023-04-04T14:17:39.463Z,3.47
2023-04-04T14:20:07.980Z,3.47
2023-04-04T14:22:35.435Z,3.34
2023-04-04T14:25:02.523Z,3.41
2023-04-04T14:27:30.486Z,3.44
2023-04-04T14:29:57.583Z,3.50
2023-04-04T14:32:27.521Z,3.40
2023-04-04T14:34:54.738Z,3.29
2023-04-04T14:37:21.968Z,3.23
2023-04-04T14:39:49.144Z,3.19
2023-04-04T14:42:16.079Z,3.00
2023-04-04T14:44:43.348Z,3.05
2023-04-04T14:47:10.227Z,2.97
2023-04-04T14:49:37.158Z,2.98
2023-04-04T14:52:04.357Z,2.81
2023-04-04T14:54:31.623Z,2.85
2023-04-04T14:56:58.635Z,2.76
2023-04-04T14:59:25.808Z,2.91
2023-04-04T15:01:52.797Z,2.86
2023-04-04T15:04:19.831Z,2.78
2023-04-04T15:06:47.178Z,2.96
2023-04-04T15:09:14.099Z,2.91
2023-04-04T15:11:41.338Z,2.72
2023-04-04T15:14:08.213Z,2.65
2023-04-04T15:16:36.007Z,2.67
2023-04-04T15:19:03.216Z,2.58
2023-04-04T15:21:32.579Z,2.76
2023-04-04T15:23:59.780Z,2.72
2023-04-04T15:26:26.670Z,2.70
2023-04-04T15:28:53.836Z,2.43
2023-04-04T15:31:21.044Z,2.77
2023-04-04T15:33:48.650Z,2.81
2023-04-04T15:36:15.590Z,2.59
2023-04-04T15:38:42.618Z,2.55
2023-04-04T15:41:10.129Z,2.51
2023-04-04T15:43:37.404Z,2.42
2023-04-04T15:46:04.910Z,2.50
2023-04-04T15:48:32.499Z,2.31
2023-04-04T15:51:02.647Z,2.40
2023-04-04T15:53:31.164Z,2.44
2023-04-04T15:55:58.698Z,2.49
2023-04-04T15:58:26.756Z,2.55
2023-04-04T16:00:54.105Z,2.69
2023-04-04T16:03:21.704Z,2.66
2023-04-04T16:05:48.697Z,2.46
2023-04-04T16:08:15.897Z,2.40
2023-04-04T16:10:44.168Z,2.46
2023-04-04T16:13:11.483Z,2.30
2023-04-04T16:15:39.072Z,2.34
2023-04-04T16:18:07.059Z,2.39
2023-04-04T16:20:35.161Z,2.24
2023-04-04T16:23:02.176Z,2.23
2023-04-04T16:25:29.184Z,2.12
2023-04-04T16:27:56.502Z,2.12
2023-04-04T16:30:23.695Z,2.08
2023-04-04T16:32:51.069Z,2.05
2023-04-04T16:35:18.141Z,2.05
2023-04-04T16:37:45.338Z,2.03
2023-04-04T16:40:14.002Z,1.92
2023-04-04T16:42:42.229Z,2.03
2023-04-04T16:45:09.841Z,2.06
2023-04-04T16:47:37.318Z,1.94
2023-04-04T16:50:07.533Z,1.93
2023-04-04T16:52:34.590Z,1.94
2023-04-04T16:55:01.678Z,2.01
2023-04-04T16:57:30.446Z,1.85
2023-04-04T16:59:57.503Z,1.86
2023-04-04T17:02:24.460Z,1.77
2023-04-04T17:04:52.417Z,1.84
2023-04-04T17:07:20.751Z,1.78
2023-04-04T17:09:48.774Z,1.75
2023-04-04T17:12:16.444Z,1.72
2023-04-04T17:14:46.392Z,1.73
2023-04-04T17:17:13.480Z,1.72
2023-04-04T17:19:40.686Z,1.64
2023-04-04T17:22:07.889Z,1.50
2023-04-04T17:24:38.919Z,1.58
2023-04-04T17:27:07.612Z,1.36
2023-04-04T17:29:34.533Z,1.54
2023-04-04T17:32:01.873Z,1.43
2023-04-04T17:34:28.884Z,1.59
2023-04-04T17:36:56.071Z,1.54
2023-04-04T17:39:23.624Z,1.46
2023-04-04T17:41:52.120Z,1.35
2023-04-04T17:44:20.889Z,1.32
2023-04-04T17:46:48.168Z,1.27
2023-04-04T17:49:19.703Z,1.28
2023-04-04T17:51:48.647Z,1.16
2023-04-04T17:54:15.992Z,1.25
2023-04-04T17:56:47.219Z,1.18
2023-04-04T17:59:16.141Z,1.24
2023-04-04T18:01:43.830Z,1.23
2023-04-04T18:04:10.878Z,1.28
2023-04-04T18:06:40.267Z,1.20
2023-04-04T18:09:10.242Z,1.38
2023-04-04T18:11:37.758Z,1.53
2023-04-04T18:14:05.095Z,1.20
2023-04-04T18:16:38.944Z,1.49
2023-04-04T18:19:07.325Z,1.41
2023-04-04T18:21:34.424Z,1.39
2023-04-04T18:24:01.670Z,1.07
2023-04-04T18:26:28.820Z,1.23
2023-04-04T18:28:55.942Z,1.10
2023-04-04T18:31:25.572Z,1.15
2023-04-04T18:33:55.672Z,1.21
2023-04-04T18:36:24.359Z,1.21
2023-04-04T18:38:55.395Z,1.22
2023-04-04T18:41:22.925Z,1.05
2023-04-04T18:43:50.058Z,1.39
2023-04-04T18:46:17.196Z,1.38
2023-04-04T18:48:44.148Z,1.29
2023-04-04T18:51:12.429Z,1.20
2023-04-04T18:53:39.654Z,1.21
2023-04-04T18:56:06.816Z,1.20
2023-04-04T18:58:33.823Z,1.18
2023-04-04T19:01:03.716Z,1.32
2023-04-04T19:03:39.418Z,1.31
2023-04-04T19:06:07.759Z,1.14
2023-04-04T19:08:40.255Z,1.11
2023-04-04T19:11:08.084Z,1.29
2023-04-04T19:13:35.123Z,1.23
2023-04-04T19:16:02.868Z,1.23
2023-04-04T19:18:30.145Z,1.21
2023-04-04T19:20:59.044Z,1.03
2023-04-04T19:23:27.862Z,1.29
2023-04-04T19:25:55.927Z,1.23
2023-04-04T19:28:22.983Z,1.23
2023-04-04T19:30:54.753Z,1.23
2023-04-04T19:33:23.662Z,1.18
2023-04-04T19:36:11.310Z,1.03
2023-04-04T19:38:42.627Z,1.26
2023-04-04T19:41:36.547Z,1.02
2023-04-04T19:44:06.538Z,1.13
2023-04-04T19:46:34.188Z,1.11
2023-04-04T19:49:14.697Z,0.97
2023-04-04T19:51:51.689Z,1.00
2023-04-04T19:54:24.475Z,0.94
2023-04-04T19:56:54.526Z,1.01
2023-04-04T19:59:47.312Z,1.01
2023-04-04T20:02:47.630Z,1.05
2023-04-04T20:05:47.122Z,1.04
2023-04-04T20:08:14.705Z,0.79
2023-04-04T20:10:42.592Z,0.90
2023-04-04T20:13:10.475Z,0.91
2023-04-04T20:15:47.624Z,0.87
2023-04-04T20:18:26.832Z,0.96
2023-04-04T20:20:58.486Z,0.58
2023-04-04T20:23:27.093Z,0.89
2023-04-04T20:25:54.900Z,0.98
2023-04-04T20:28:29.134Z,0.94
2023-04-04T20:31:03.053Z,1.04
2023-04-04T20:33:37.355Z,1.04
2023-04-04T20:36:12.321Z,1.02
2023-04-04T20:38:41.315Z,0.93
2023-04-04T20:41:28.880Z,0.92
2023-04-04T20:43:57.994Z,0.60
2023-04-04T20:46:28.077Z,0.79
2023-04-04T20:48:56.739Z,0.65
2023-04-04T20:51:24.401Z,0.80
2023-04-04T20:53:52.911Z,0.73
2023-04-04T20:56:39.479Z,0.82
2023-04-04T20:59:07.998Z,0.63
2023-04-04T21:01:34.991Z,0.78
2023-04-04T21:04:02.014Z,0.78
2023-04-04T21:06:29.857Z,0.80
2023-04-04T21:08:56.748Z,0.92
2023-04-04T21:11:32.545Z,0.87
2023-04-04T21:13:59.601Z,0.73
2023-04-04T21:16:27.665Z,0.75
2023-04-04T21:19:00.310Z,0.60
2023-04-04T21:21:28.550Z,0.55
2023-04-04T21:23:59.749Z,0.70
2023-04-04T21:26:29.865Z,0.72
2023-04-04T21:28:58.749Z,0.75
2023-04-04T21:31:29.847Z,0.79
2023-04-04T21:34:07.646Z,0.78
2023-04-04T21:36:34.595Z,0.00
2023-04-04T21:39:03.198Z,0.71
2023-04-04T21:41:32.687Z,0.66
2023-04-04T21:44:00.374Z,0.68
2023-04-04T21:46:32.050Z,0.55
2023-04-04T21:48:59.784Z,0.57
2023-04-04T21:51:27.640Z,0.62
2023-04-04T21:53:55.091Z,0.54
2023-04-04T21:56:27.501Z,0.70
2023-04-04T21:58:55.517Z,0.58
2023-04-04T22:01:22.769Z,0.65
2023-04-04T22:03:49.897Z,0.46
2023-04-04T22:06:17.364Z,0.68
2023-04-04T22:08:44.432Z,0.71
2023-04-04T22:11:19.017Z,0.76
2023-04-04T22:13:50.603Z,0.57
2023-04-04T22:16:19.678Z,0.69
2023-04-04T22:18:52.015Z,0.70
2023-04-04T22:21:29.139Z,0.55
2023-04-04T22:24:01.993Z,0.69
2023-04-04T22:26:32.498Z,0.72
2023-04-04T22:29:03.994Z,0.26
2023-04-04T22:31:34.279Z,0.63
2023-04-04T22:34:03.311Z,0.64
2023-04-04T22:36:30.977Z,0.57
2023-04-04T22:38:58.363Z,0.61
2023-04-04T22:41:30.074Z,0.57
2023-04-04T22:43:57.719Z,0.59
2023-04-04T22:46:26.057Z,0.64
2023-04-04T22:49:04.949Z,0.55
2023-04-04T22:51:35.158Z,0.77
2023-04-04T22:54:02.511Z,0.70
2023-04-04T22:56:29.339Z,0.59
2023-04-04T22:58:56.375Z,0.48
2023-04-04T23:01:23.436Z,0.66
2023-04-04T23:03:50.510Z,0.66
2023-04-04T23:06:19.953Z,0.75
2023-04-04T23:08:47.224Z,0.71
2023-04-04T23:11:14.216Z,0.78
2023-04-04T23:13:43.265Z,0.61
2023-04-04T23:16:10.468Z,0.70
2023-04-04T23:18:37.322Z,0.66
2023-04-04T23:21:04.375Z,0.49
2023-04-04T23:23:31.342Z,0.51
2023-04-04T23:25:58.529Z,0.50
2023-04-04T23:28:29.401Z,0.58
2023-04-04T23:30:56.805Z,0.54
2023-04-04T23:33:23.949Z,0.59
2023-04-04T23:35:51.128Z,0.58
2023-04-04T23:38:18.206Z,0.52
2023-04-04T23:40:45.231Z,0.58
2023-04-04T23:43:12.321Z,0.58
2023-04-04T23:45:40.293Z,0.50
2023-04-04T23:48:07.635Z,0.44
2023-04-04T23:50:34.767Z,0.57
2023-04-04T23:53:01.842Z,0.44
2023-04-04T23:55:28.801Z,0.50
2023-04-04T23:58:03.201Z,0.64
